Terminal Aerodrome Forecast
Issued by NWS Tulsa, OK

Home | Current Version | Previous Version | Text Only | Print | Product List | Glossary On
Versions: 1 2 3 4 5 6 7 8 9 10 11 12 13 14 15 16 17
837
FTUS44 KTSA 290520
TAFTUL
TAF
KTUL 290520Z 2906/3006 33012KT P6SM VCTS SCT040CB BKN200
     FM290800 VRB03KT P6SM SCT040 BKN200
     FM291500 17005KT P6SM SCT040 BKN250 PROB30 2915/2921 5SM -TSRA
      BKN050CB
     FM292100 11006KT P6SM SCT050 BKN250 PROB30 2921/3002 5SM -TSRA
      BKN050CB=

USA.gov is the U.S. government's official web portal to all federal, state and local government web resources and services.